createdAt,value
2023-03-26T00:00:41.387Z,6.19
2023-03-26T00:01:41.417Z,6.16
2023-03-26T00:02:41.197Z,6.19
2023-03-26T00:03:41.037Z,6.19
2023-03-26T00:04:41.034Z,6.19
2023-03-26T00:05:41.041Z,6.18
2023-03-26T00:06:41.329Z,6.18
2023-03-26T00:07:40.994Z,6.24
2023-03-26T00:08:40.995Z,6.24
2023-03-26T00:09:40.975Z,6.27
2023-03-26T00:10:40.970Z,6.24
2023-03-26T00:11:41.663Z,6.27
2023-03-26T00:12:40.959Z,6.30
2023-03-26T00:13:40.936Z,6.32
2023-03-26T00:14:40.936Z,6.32
2023-03-26T00:15:40.925Z,6.32
2023-03-26T00:16:41.228Z,6.32
2023-03-26T00:17:40.945Z,6.35
2023-03-26T00:18:40.889Z,6.35
2023-03-26T00:19:40.877Z,6.37
2023-03-26T00:20:40.863Z,6.35
2023-03-26T00:21:41.186Z,6.37
2023-03-26T00:22:40.855Z,6.40
2023-03-26T00:23:40.830Z,6.38
2023-03-26T00:24:40.823Z,6.34
2023-03-26T00:25:40.809Z,6.37
2023-03-26T00:26:40.844Z,6.38
2023-03-26T00:27:40.802Z,6.40
2023-03-26T00:28:40.778Z,6.35
2023-03-26T00:29:40.780Z,6.42
2023-03-26T00:30:40.767Z,6.42
2023-03-26T00:31:41.060Z,6.43
2023-03-26T00:32:40.773Z,6.45
2023-03-26T00:33:40.830Z,6.49
2023-03-26T00:34:40.729Z,6.46
2023-03-26T00:35:40.745Z,6.49
2023-03-26T00:36:41.143Z,6.50
2023-03-26T00:37:40.693Z,6.46
2023-03-26T00:38:40.680Z,6.47
2023-03-26T00:39:40.684Z,6.47
2023-03-26T00:40:40.657Z,6.49
2023-03-26T00:41:40.694Z,6.49
2023-03-26T00:42:40.640Z,6.49
2023-03-26T00:43:40.630Z,6.50
2023-03-26T00:44:40.622Z,6.46
2023-03-26T00:45:40.614Z,6.49
2023-03-26T00:46:41.111Z,6.50
2023-03-26T00:47:40.640Z,6.49
2023-03-26T00:48:45.440Z,6.49
2023-03-26T00:49:40.570Z,6.47
2023-03-26T00:50:40.552Z,6.49
2023-03-26T00:51:41.236Z,6.49
2023-03-26T00:52:40.536Z,6.50
2023-03-26T00:53:40.530Z,6.47
2023-03-26T00:54:40.511Z,6.49
2023-03-26T00:55:40.505Z,6.45
2023-03-26T00:56:40.866Z,6.50
2023-03-26T00:57:40.562Z,6.49
2023-03-26T00:58:40.470Z,6.50
2023-03-26T00:59:40.479Z,6.47
2023-03-26T01:00:40.455Z,6.49
2023-03-26T01:01:40.866Z,6.50
2023-03-26T01:02:40.494Z,6.50
2023-03-26T01:03:40.576Z,6.52
2023-03-26T01:04:40.579Z,6.49
2023-03-26T01:05:40.398Z,6.47
2023-03-26T01:06:40.404Z,6.52
2023-03-26T01:07:40.374Z,6.47
2023-03-26T01:08:40.376Z,6.53
2023-03-26T01:09:40.355Z,6.52
2023-03-26T01:10:40.349Z,6.47
2023-03-26T01:11:40.674Z,6.49
2023-03-26T01:12:40.325Z,6.50
2023-03-26T01:13:40.323Z,6.53
2023-03-26T01:14:40.310Z,6.46
2023-03-26T01:15:40.321Z,6.47
2023-03-26T01:16:41.072Z,6.49
2023-03-26T01:17:40.296Z,6.49
2023-03-26T01:18:40.271Z,6.49
2023-03-26T01:19:40.251Z,6.47
2023-03-26T01:20:40.247Z,6.43
2023-03-26T01:21:41.012Z,6.50
2023-03-26T01:22:40.224Z,6.50
2023-03-26T01:23:40.207Z,6.46
2023-03-26T01:24:40.208Z,6.49
2023-03-26T01:25:40.185Z,6.46
2023-03-26T01:26:40.588Z,6.46
2023-03-26T01:27:40.179Z,6.45
2023-03-26T01:28:40.162Z,6.49
2023-03-26T01:29:40.146Z,6.47
2023-03-26T01:30:40.136Z,6.46
2023-03-26T01:31:40.495Z,6.45
2023-03-26T01:32:40.180Z,6.47
2023-03-26T01:33:40.273Z,6.46
2023-03-26T01:34:40.096Z,6.47
2023-03-26T01:35:40.213Z,6.43
2023-03-26T01:36:40.392Z,6.46
2023-03-26T01:37:40.065Z,6.45
2023-03-26T01:38:40.074Z,6.45
2023-03-26T01:39:40.049Z,6.46
2023-03-26T01:40:40.048Z,6.46
2023-03-26T01:41:40.360Z,6.46
2023-03-26T01:42:40.010Z,6.43
2023-03-26T01:43:40.002Z,6.45
2023-03-26T01:44:40.000Z,6.45
2023-03-26T01:45:39.981Z,6.42
2023-03-26T01:46:40.425Z,6.38
2023-03-26T01:47:39.995Z,6.40
2023-03-26T01:48:39.953Z,6.43
2023-03-26T01:49:39.937Z,6.40
2023-03-26T01:50:39.930Z,6.37
2023-03-26T01:51:40.286Z,6.42
2023-03-26T01:52:39.927Z,6.37
2023-03-26T01:53:39.895Z,6.35
2023-03-26T01:54:39.892Z,6.42
2023-03-26T01:55:39.873Z,6.38
2023-03-26T01:56:39.923Z,6.35
2023-03-26T01:57:39.851Z,6.42
2023-03-26T01:58:39.858Z,6.42
2023-03-26T01:59:39.835Z,6.42
2023-03-26T02:00:39.839Z,6.40
2023-03-26T02:01:40.192Z,6.43
2023-03-26T02:02:39.983Z,6.40
2023-03-26T02:03:39.839Z,6.40
2023-03-26T02:04:39.791Z,6.42
2023-03-26T02:05:39.787Z,6.42
2023-03-26T02:06:40.050Z,6.43
2023-03-26T02:07:39.753Z,6.43
2023-03-26T02:08:39.745Z,6.42
2023-03-26T02:09:39.746Z,6.38
2023-03-26T02:10:39.730Z,6.43
2023-03-26T02:11:39.973Z,6.40
2023-03-26T02:12:39.706Z,6.38
2023-03-26T02:13:39.688Z,6.38
2023-03-26T02:14:39.683Z,6.40
2023-03-26T02:15:39.669Z,6.42
2023-03-26T02:16:39.671Z,6.37
2023-03-26T02:17:40.098Z,6.37
2023-03-26T02:18:39.655Z,6.37
2023-03-26T02:19:39.622Z,6.37
2023-03-26T02:20:39.613Z,6.37
2023-03-26T02:21:39.605Z,6.34
2023-03-26T02:22:39.907Z,6.35
2023-03-26T02:23:39.582Z,6.32
2023-03-26T02:24:39.575Z,6.35
2023-03-26T02:25:39.556Z,6.35
2023-03-26T02:26:39.584Z,6.34
2023-03-26T02:27:39.866Z,6.31
2023-03-26T02:28:39.532Z,6.32
2023-03-26T02:29:39.517Z,6.35
2023-03-26T02:30:39.509Z,6.37
2023-03-26T02:31:39.518Z,6.35
2023-03-26T02:32:39.894Z,6.37
2023-03-26T02:33:39.500Z,6.35
2023-03-26T02:34:39.478Z,6.37
2023-03-26T02:35:39.546Z,6.37
2023-03-26T02:36:39.542Z,6.32
2023-03-26T02:37:39.808Z,6.34
2023-03-26T02:38:39.441Z,6.34
2023-03-26T02:39:39.414Z,6.37
2023-03-26T02:40:39.412Z,6.32
2023-03-26T02:41:39.391Z,6.34
2023-03-26T02:42:39.710Z,6.32
2023-03-26T02:43:39.375Z,6.31
2023-03-26T02:44:39.366Z,6.31
2023-03-26T02:45:39.419Z,6.34
2023-03-26T02:46:39.350Z,6.34
2023-03-26T02:47:39.708Z,6.31
2023-03-26T02:48:39.325Z,6.34
2023-03-26T02:49:39.308Z,6.34
2023-03-26T02:50:39.315Z,6.31
2023-03-26T02:51:39.300Z,6.31
2023-03-26T02:52:39.595Z,6.32
2023-03-26T02:53:39.284Z,6.32
2023-03-26T02:54:39.266Z,6.31
2023-03-26T02:55:39.248Z,6.31
2023-03-26T02:56:39.284Z,6.28
2023-03-26T02:57:39.546Z,6.27
2023-03-26T02:58:39.236Z,6.30
2023-03-26T02:59:39.223Z,6.27
2023-03-26T03:00:39.217Z,6.28
2023-03-26T03:01:39.205Z,6.31
2023-03-26T03:02:39.547Z,6.30
2023-03-26T03:03:39.161Z,6.25
2023-03-26T03:04:39.155Z,6.25
2023-03-26T03:05:39.138Z,6.25
2023-03-26T03:06:39.147Z,6.27
2023-03-26T03:07:39.437Z,6.24
2023-03-26T03:08:39.130Z,6.21
2023-03-26T03:09:39.100Z,6.27
2023-03-26T03:10:39.096Z,6.25
2023-03-26T03:11:39.090Z,6.21
2023-03-26T03:12:39.474Z,6.19
2023-03-26T03:13:39.064Z,6.27
2023-03-26T03:14:39.059Z,6.24
2023-03-26T03:15:39.047Z,6.19
2023-03-26T03:16:39.091Z,6.19
2023-03-26T03:17:39.412Z,6.21
2023-03-26T03:18:39.017Z,6.19
2023-03-26T03:19:39.005Z,6.18
2023-03-26T03:20:39.000Z,6.18
2023-03-26T03:21:38.984Z,6.16
2023-03-26T03:22:38.970Z,6.18
2023-03-26T03:23:39.278Z,6.18
2023-03-26T03:24:38.952Z,6.16
2023-03-26T03:25:38.939Z,6.19
2023-03-26T03:26:38.957Z,6.16
2023-03-26T03:27:38.917Z,6.15
2023-03-26T03:28:39.255Z,6.18
2023-03-26T03:29:38.897Z,6.19
2023-03-26T03:30:38.925Z,6.19
2023-03-26T03:31:38.873Z,6.16
2023-03-26T03:32:38.905Z,6.19
2023-03-26T03:33:39.234Z,6.19
2023-03-26T03:34:38.883Z,6.24
2023-03-26T03:35:38.885Z,6.24
2023-03-26T03:36:38.828Z,6.19
2023-03-26T03:37:38.822Z,6.21
2023-03-26T03:38:39.114Z,6.19
2023-03-26T03:39:38.792Z,6.24
2023-03-26T03:40:38.792Z,6.19
2023-03-26T03:41:38.770Z,6.24
2023-03-26T03:42:38.769Z,6.19
2023-03-26T03:43:39.070Z,6.18
2023-03-26T03:44:38.756Z,6.15
2023-03-26T03:45:38.735Z,6.19
2023-03-26T03:46:38.805Z,6.21
2023-03-26T03:47:38.747Z,6.15
2023-03-26T03:48:39.041Z,6.18
2023-03-26T03:49:38.712Z,6.15
2023-03-26T03:50:38.696Z,6.16
2023-03-26T03:51:38.666Z,6.15
2023-03-26T03:52:38.663Z,6.13
2023-03-26T03:53:39.000Z,6.19
2023-03-26T03:54:38.642Z,6.18
2023-03-26T03:55:38.632Z,6.16
2023-03-26T03:56:38.643Z,6.15
2023-03-26T03:57:38.604Z,6.18
2023-03-26T03:58:38.923Z,6.18
2023-03-26T03:59:38.584Z,6.19
2023-03-26T04:00:38.578Z,6.16
2023-03-26T04:01:38.565Z,6.18
2023-03-26T04:02:38.667Z,6.16
2023-03-26T04:03:39.380Z,6.24
2023-03-26T04:04:38.567Z,6.21
2023-03-26T04:05:38.524Z,6.24
2023-03-26T04:06:38.516Z,6.18
2023-03-26T04:07:38.509Z,6.19
2023-03-26T04:08:39.217Z,6.16
2023-03-26T04:09:38.479Z,6.24
2023-03-26T04:10:38.472Z,6.19
2023-03-26T04:11:38.465Z,6.16
2023-03-26T04:12:38.462Z,6.16
2023-03-26T04:13:38.778Z,6.15
2023-03-26T04:14:38.449Z,6.18
2023-03-26T04:15:38.494Z,6.16
2023-03-26T04:16:38.414Z,6.16
2023-03-26T04:17:38.421Z,6.24
2023-03-26T04:18:39.237Z,6.25
2023-03-26T04:19:38.386Z,6.24
2023-03-26T04:20:38.379Z,6.27
2023-03-26T04:21:38.356Z,6.24
2023-03-26T04:22:38.348Z,6.24
2023-03-26T04:23:38.670Z,6.30
2023-03-26T04:24:38.351Z,6.28
2023-03-26T04:25:38.310Z,6.27
2023-03-26T04:26:38.318Z,6.27
2023-03-26T04:27:38.299Z,6.30
2023-03-26T04:28:38.588Z,6.30
2023-03-26T04:29:38.277Z,6.28
2023-03-26T04:30:38.296Z,6.30
2023-03-26T04:31:38.343Z,6.30
2023-03-26T04:32:38.328Z,6.30
2023-03-26T04:33:38.770Z,6.30
2023-03-26T04:34:38.225Z,6.31
2023-03-26T04:35:38.257Z,6.34
2023-03-26T04:36:38.205Z,6.37
2023-03-26T04:37:38.186Z,6.37
2023-03-26T04:38:38.579Z,6.37
2023-03-26T04:39:38.114Z,6.34
2023-03-26T04:40:38.162Z,6.31
2023-03-26T04:41:38.103Z,6.34
2023-03-26T04:42:38.090Z,6.32
2023-03-26T04:43:38.321Z,6.32
2023-03-26T04:44:38.118Z,6.32
2023-03-26T04:45:38.106Z,6.31
2023-03-26T04:46:38.150Z,6.31
2023-03-26T04:47:38.074Z,6.31
2023-03-26T04:48:38.822Z,6.32
2023-03-26T04:49:38.003Z,6.34
2023-03-26T04:50:38.004Z,6.31
2023-03-26T04:51:37.991Z,6.28
2023-03-26T04:52:37.981Z,6.34
2023-03-26T04:53:38.146Z,6.30
2023-03-26T04:54:37.962Z,6.27
2023-03-26T04:55:37.953Z,6.30
2023-03-26T04:56:38.021Z,6.31
2023-03-26T04:57:37.935Z,6.30
2023-03-26T04:58:38.504Z,6.31
2023-03-26T04:59:37.905Z,6.35
2023-03-26T05:00:37.903Z,6.35
2023-03-26T05:01:38.096Z,6.32
2023-03-26T05:02:37.906Z,6.34
2023-03-26T05:03:38.368Z,6.31
2023-03-26T05:04:37.884Z,6.35
2023-03-26T05:05:37.849Z,6.34
2023-03-26T05:06:37.843Z,6.32
2023-03-26T05:07:37.825Z,6.32
2023-03-26T05:08:38.600Z,6.31
2023-03-26T05:09:37.796Z,6.25
2023-03-26T05:10:37.796Z,6.27
2023-03-26T05:11:37.789Z,6.27
2023-03-26T05:12:37.773Z,6.25
2023-03-26T05:13:38.115Z,6.27
2023-03-26T05:14:37.751Z,6.27
2023-03-26T05:15:37.746Z,6.27
2023-03-26T05:16:37.740Z,6.21
2023-03-26T05:17:37.741Z,6.24
2023-03-26T05:18:38.582Z,6.25
2023-03-26T05:19:37.700Z,6.24
2023-03-26T05:20:37.687Z,6.24
2023-03-26T05:21:37.681Z,6.15
2023-03-26T05:22:38.225Z,6.15
2023-03-26T05:23:37.658Z,6.16
2023-03-26T05:24:38.078Z,6.18
2023-03-26T05:25:37.632Z,6.21
2023-03-26T05:26:37.619Z,6.16
2023-03-26T05:27:37.615Z,6.16
2023-03-26T05:28:37.610Z,6.13
2023-03-26T05:29:37.897Z,6.16
2023-03-26T05:30:37.576Z,6.16
2023-03-26T05:31:37.584Z,6.19
2023-03-26T05:32:37.645Z,6.24
2023-03-26T05:33:37.647Z,6.18
2023-03-26T05:34:37.578Z,6.25
2023-03-26T05:35:37.638Z,6.24
2023-03-26T05:36:37.516Z,6.25
2023-03-26T05:37:37.518Z,6.24
2023-03-26T05:38:37.492Z,6.28
2023-03-26T05:39:37.769Z,6.30
2023-03-26T05:40:37.478Z,6.31
2023-03-26T05:41:37.504Z,6.34
2023-03-26T05:42:37.453Z,6.32
2023-03-26T05:43:37.452Z,6.32
2023-03-26T05:44:37.778Z,6.35
2023-03-26T05:45:37.432Z,6.37
2023-03-26T05:46:37.417Z,6.43
2023-03-26T05:47:37.473Z,6.38
2023-03-26T05:48:37.390Z,6.43
2023-03-26T05:49:37.788Z,6.42
2023-03-26T05:50:37.373Z,6.45
2023-03-26T05:51:37.391Z,6.43
2023-03-26T05:52:37.361Z,6.47
2023-03-26T05:53:37.344Z,6.47
2023-03-26T05:54:37.699Z,6.45
2023-03-26T05:55:37.331Z,6.47
2023-03-26T05:56:37.339Z,6.45
2023-03-26T05:57:37.303Z,6.47
2023-03-26T05:58:37.291Z,6.52
2023-03-26T05:59:37.645Z,6.50
2023-03-26T06:00:37.270Z,6.49
2023-03-26T06:01:37.265Z,6.55
2023-03-26T06:02:37.251Z,6.53
2023-03-26T06:03:37.380Z,6.53
2023-03-26T06:04:37.620Z,6.60
2023-03-26T06:05:37.243Z,6.56
2023-03-26T06:06:37.211Z,6.61
2023-03-26T06:07:37.206Z,6.61
2023-03-26T06:08:37.193Z,6.61
2023-03-26T06:09:37.916Z,6.61
2023-03-26T06:10:37.173Z,6.60
2023-03-26T06:11:37.175Z,6.61
2023-03-26T06:12:37.148Z,6.63
2023-03-26T06:13:37.157Z,6.57
2023-03-26T06:14:37.497Z,6.63
2023-03-26T06:15:37.145Z,6.65
2023-03-26T06:16:37.245Z,6.70
2023-03-26T06:17:37.141Z,6.68
2023-03-26T06:18:37.134Z,6.71
2023-03-26T06:19:37.373Z,6.73
2023-03-26T06:20:37.058Z,6.71
2023-03-26T06:21:37.055Z,6.78
2023-03-26T06:22:37.050Z,6.75
2023-03-26T06:23:37.036Z,6.82
2023-03-26T06:24:37.406Z,6.82
2023-03-26T06:25:37.015Z,6.89
2023-03-26T06:26:37.028Z,6.92
2023-03-26T06:27:36.987Z,6.96
2023-03-26T06:28:37.137Z,6.97
2023-03-26T06:29:37.162Z,6.99
2023-03-26T06:30:36.950Z,7.06
2023-03-26T06:31:37.006Z,7.18
2023-03-26T06:32:36.975Z,7.34
2023-03-26T06:33:36.926Z,7.43
2023-03-26T06:34:37.094Z,7.46
2023-03-26T06:35:36.966Z,7.46
2023-03-26T06:36:36.890Z,7.49
2023-03-26T06:37:36.915Z,7.58
2023-03-26T06:38:36.886Z,7.58
2023-03-26T06:39:36.883Z,7.60
2023-03-26T06:40:36.873Z,7.62
2023-03-26T06:41:36.844Z,7.68
2023-03-26T06:43:09.434Z,7.69
2023-03-26T06:43:36.831Z,7.68
2023-03-26T06:44:36.829Z,7.68
2023-03-26T06:45:36.826Z,7.71
2023-03-26T06:46:36.816Z,7.69
2023-03-26T06:47:36.795Z,7.74
2023-03-26T06:48:36.868Z,7.71
2023-03-26T06:49:36.773Z,7.76
2023-03-26T06:50:36.744Z,7.68
2023-03-26T06:51:36.750Z,7.68
2023-03-26T06:52:36.728Z,7.64
2023-03-26T06:53:36.720Z,7.68
2023-03-26T06:54:36.852Z,7.66
2023-03-26T06:55:36.702Z,7.66
2023-03-26T06:56:36.713Z,7.68
2023-03-26T06:57:36.679Z,7.68
2023-03-26T06:58:36.664Z,7.71
2023-03-26T06:59:36.970Z,7.74
2023-03-26T07:00:36.650Z,7.76
2023-03-26T07:01:36.686Z,7.76
2023-03-26T07:02:36.658Z,7.76
2023-03-26T07:03:36.635Z,7.83
2023-03-26T07:04:36.951Z,7.84
2023-03-26T07:05:36.603Z,7.94
2023-03-26T07:06:36.585Z,7.96
2023-03-26T07:07:36.577Z,8.06
2023-03-26T07:08:36.562Z,8.04
2023-03-26T07:09:36.826Z,8.04
2023-03-26T07:10:36.551Z,8.09
2023-03-26T07:11:36.538Z,8.19
2023-03-26T07:12:36.523Z,8.16
2023-03-26T07:13:36.521Z,8.21
2023-03-26T07:14:36.864Z,8.23
2023-03-26T07:15:36.493Z,8.32
2023-03-26T07:16:36.495Z,8.34
2023-03-26T07:17:36.521Z,8.37
2023-03-26T07:18:36.467Z,8.39
2023-03-26T07:19:36.739Z,8.38
2023-03-26T07:20:36.462Z,8.35
2023-03-26T07:21:36.439Z,8.41
2023-03-26T07:22:36.438Z,8.41
2023-03-26T07:23:36.428Z,8.38
2023-03-26T07:24:36.735Z,8.39
2023-03-26T07:25:36.397Z,8.46
2023-03-26T07:26:36.386Z,8.52
2023-03-26T07:27:36.378Z,8.59
2023-03-26T07:28:36.360Z,8.60
2023-03-26T07:29:37.118Z,8.67
2023-03-26T07:30:36.344Z,8.65
2023-03-26T07:31:36.357Z,8.63
2023-03-26T07:32:36.335Z,8.60
2023-03-26T07:33:36.319Z,8.67
2023-03-26T07:34:36.812Z,8.70
2023-03-26T07:35:36.350Z,8.70
2023-03-26T07:36:36.294Z,8.70
2023-03-26T07:37:36.278Z,8.71
2023-03-26T07:38:36.264Z,8.63
2023-03-26T07:39:36.579Z,8.70
2023-03-26T07:40:36.265Z,8.62
2023-03-26T07:41:36.236Z,8.60
2023-03-26T07:42:36.217Z,8.56
2023-03-26T07:43:36.212Z,8.60
2023-03-26T07:44:36.744Z,8.63
2023-03-26T07:45:36.213Z,8.68
2023-03-26T07:46:36.176Z,8.70
2023-03-26T07:47:36.196Z,8.71
2023-03-26T07:48:36.158Z,8.78
2023-03-26T07:49:36.998Z,8.74
2023-03-26T07:50:36.133Z,8.75
2023-03-26T07:51:36.134Z,8.80
2023-03-26T07:52:36.116Z,8.78
2023-03-26T07:53:36.119Z,8.78
2023-03-26T07:54:36.268Z,8.78
2023-03-26T07:55:36.093Z,8.81
2023-03-26T07:56:36.207Z,8.83
2023-03-26T07:57:36.169Z,8.85
2023-03-26T07:58:36.066Z,8.88
2023-03-26T07:59:36.241Z,8.86
2023-03-26T08:00:36.038Z,8.81
2023-03-26T08:01:36.035Z,8.88
2023-03-26T08:02:36.037Z,8.90
2023-03-26T08:03:36.110Z,8.96
2023-03-26T08:04:36.200Z,8.88
2023-03-26T08:05:35.999Z,8.86
2023-03-26T08:06:35.980Z,8.80
2023-03-26T08:07:35.980Z,8.75
2023-03-26T08:08:35.957Z,8.70
2023-03-26T08:09:35.970Z,8.71
2023-03-26T08:10:35.940Z,8.77
2023-03-26T08:11:35.949Z,8.77
2023-03-26T08:12:35.921Z,8.80
2023-03-26T08:13:35.919Z,8.75
2023-03-26T08:14:35.928Z,8.80
2023-03-26T08:15:35.917Z,8.78
2023-03-26T08:16:35.886Z,8.81
2023-03-26T08:17:35.883Z,8.90
2023-03-26T08:18:35.873Z,8.92
2023-03-26T08:19:35.880Z,8.95
2023-03-26T08:20:35.849Z,8.92
2023-03-26T08:21:35.849Z,8.93
2023-03-26T08:22:35.825Z,8.98
2023-03-26T08:23:35.823Z,9.04
2023-03-26T08:24:35.808Z,9.03
2023-03-26T08:25:37.921Z,9.04
2023-03-26T08:26:35.795Z,9.01
2023-03-26T08:27:35.777Z,9.03
2023-03-26T08:28:35.768Z,8.98
2023-03-26T08:29:35.781Z,9.04
2023-03-26T08:30:35.780Z,8.98
2023-03-26T08:31:35.783Z,8.96
2023-03-26T08:32:35.801Z,8.99
2023-03-26T08:33:37.796Z,9.08
2023-03-26T08:34:35.726Z,8.99
2023-03-26T08:35:35.823Z,9.06
2023-03-26T08:36:35.698Z,9.01
2023-03-26T08:37:35.690Z,9.09
2023-03-26T08:38:35.704Z,9.16
2023-03-26T08:39:35.682Z,9.12
2023-03-26T08:40:35.670Z,9.09
2023-03-26T08:41:35.659Z,9.01
2023-03-26T08:42:35.652Z,9.08
2023-03-26T08:43:35.640Z,9.09
2023-03-26T08:44:35.631Z,9.06
2023-03-26T08:45:35.658Z,9.11
2023-03-26T08:46:35.646Z,9.18
2023-03-26T08:47:35.656Z,9.14
2023-03-26T08:48:35.586Z,9.14
2023-03-26T08:49:35.586Z,9.12
2023-03-26T08:50:35.603Z,9.12
2023-03-26T08:51:35.579Z,9.14
2023-03-26T08:52:35.557Z,9.14
2023-03-26T08:53:35.564Z,9.15
2023-03-26T08:54:35.543Z,9.18
2023-03-26T08:55:35.550Z,9.24
2023-03-26T08:56:35.563Z,9.27
2023-03-26T08:57:35.515Z,9.23
2023-03-26T08:58:35.524Z,9.19
2023-03-26T08:59:35.495Z,9.22
2023-03-26T09:00:35.491Z,9.24
2023-03-26T09:01:35.539Z,9.22
2023-03-26T09:02:35.485Z,9.26
2023-03-26T09:03:35.467Z,9.30
2023-03-26T09:04:35.450Z,9.22
2023-03-26T09:05:35.550Z,9.30
2023-03-26T09:06:35.427Z,9.34
2023-03-26T09:07:35.424Z,9.40
2023-03-26T09:08:35.407Z,9.36
2023-03-26T09:09:35.405Z,9.32
2023-03-26T09:10:35.413Z,9.40
2023-03-26T09:11:35.395Z,9.41
2023-03-26T09:12:35.376Z,9.36
2023-03-26T09:13:35.386Z,9.40
2023-03-26T09:14:35.373Z,9.40
2023-03-26T09:15:35.367Z,9.37
2023-03-26T09:16:35.439Z,9.32
2023-03-26T09:17:35.427Z,9.24
2023-03-26T09:18:35.328Z,9.16
2023-03-26T09:19:35.317Z,9.16
2023-03-26T09:20:35.652Z,9.19
2023-03-26T09:21:35.299Z,9.24
2023-03-26T09:22:35.287Z,9.24
2023-03-26T09:23:35.279Z,9.27
2023-03-26T09:24:35.267Z,9.27
2023-03-26T09:25:35.559Z,9.32
2023-03-26T09:26:35.249Z,9.30
2023-03-26T09:27:35.255Z,9.36
2023-03-26T09:28:35.236Z,9.45
2023-03-26T09:29:35.226Z,9.42
2023-03-26T09:30:35.232Z,9.42
2023-03-26T09:31:35.236Z,9.47
2023-03-26T09:32:35.248Z,9.55
2023-03-26T09:33:35.188Z,9.54
2023-03-26T09:34:35.186Z,9.59
2023-03-26T09:35:35.954Z,9.55
2023-03-26T09:36:35.168Z,9.51
2023-03-26T09:37:35.148Z,9.47
2023-03-26T09:38:35.171Z,9.55
2023-03-26T09:39:35.143Z,9.54
2023-03-26T09:40:35.442Z,9.62
2023-03-26T09:41:35.120Z,9.57
2023-03-26T09:42:35.120Z,9.54
2023-03-26T09:43:35.114Z,9.59
2023-03-26T09:44:35.096Z,9.54
2023-03-26T09:45:35.125Z,9.54
2023-03-26T09:46:35.082Z,9.45
2023-03-26T09:47:35.111Z,9.48
2023-03-26T09:48:35.061Z,9.47
2023-03-26T09:49:35.047Z,9.48
2023-03-26T09:50:35.073Z,9.47
2023-03-26T09:51:35.031Z,9.52
2023-03-26T09:52:35.036Z,9.55
2023-03-26T09:53:35.009Z,9.51
2023-03-26T09:54:35.008Z,9.54
2023-03-26T09:55:35.018Z,9.57
2023-03-26T09:56:35.705Z,9.62
2023-03-26T09:57:35.014Z,9.66
2023-03-26T09:58:34.977Z,9.72
2023-03-26T09:59:34.968Z,9.72
2023-03-26T10:00:35.331Z,9.75
2023-03-26T10:01:34.976Z,9.77
2023-03-26T10:02:45.849Z,9.84
2023-03-26T10:03:34.933Z,9.90
2023-03-26T10:04:34.928Z,9.93
2023-03-26T10:05:35.364Z,9.96
2023-03-26T10:06:34.909Z,9.99
2023-03-26T10:07:34.888Z,9.98
2023-03-26T10:08:34.879Z,10.06
2023-03-26T10:09:34.873Z,10.01
2023-03-26T10:10:34.886Z,9.94
2023-03-26T10:11:34.849Z,9.90
2023-03-26T10:12:34.846Z,9.67
2023-03-26T10:13:34.840Z,9.72
2023-03-26T10:14:34.830Z,9.69
2023-03-26T10:15:35.004Z,9.70
2023-03-26T10:16:34.887Z,9.66
2023-03-26T10:17:34.830Z,9.60
2023-03-26T10:18:34.795Z,9.65
2023-03-26T10:19:34.820Z,9.59
2023-03-26T10:20:34.803Z,9.60
2023-03-26T10:21:34.782Z,9.62
2023-03-26T10:22:34.761Z,9.60
2023-03-26T10:23:34.753Z,9.65
2023-03-26T10:24:34.753Z,9.66
2023-03-26T10:25:35.420Z,9.66
2023-03-26T10:26:34.726Z,9.72
2023-03-26T10:27:34.715Z,9.73
2023-03-26T10:28:34.709Z,9.65
2023-03-26T10:29:34.701Z,9.60
2023-03-26T10:30:34.701Z,9.69
2023-03-26T10:31:34.677Z,9.67
2023-03-26T10:32:34.695Z,9.65
2023-03-26T10:33:34.663Z,9.60
2023-03-26T10:34:34.658Z,9.55
2023-03-26T10:35:35.353Z,9.59
2023-03-26T10:36:34.675Z,9.65
2023-03-26T10:37:34.624Z,9.63
2023-03-26T10:38:34.622Z,9.63
2023-03-26T10:39:36.771Z,9.60
2023-03-26T10:40:35.127Z,9.57
2023-03-26T10:41:34.589Z,9.55
2023-03-26T10:42:34.581Z,9.52
2023-03-26T10:43:34.574Z,9.48
2023-03-26T10:44:34.566Z,9.41
2023-03-26T10:45:34.877Z,9.32
2023-03-26T10:46:34.626Z,9.32
2023-03-26T10:47:34.545Z,9.33
2023-03-26T10:48:34.530Z,9.19
2023-03-26T10:49:34.515Z,9.15
2023-03-26T10:50:35.238Z,9.18
2023-03-26T10:51:34.499Z,9.12
2023-03-26T10:52:34.489Z,9.18
2023-03-26T10:53:34.480Z,9.22
2023-03-26T10:54:34.490Z,9.22
2023-03-26T10:55:34.782Z,9.23
2023-03-26T10:56:34.478Z,9.09
2023-03-26T10:57:34.447Z,9.09
2023-03-26T10:58:45.898Z,9.11
2023-03-26T10:59:34.429Z,9.11
2023-03-26T11:00:34.752Z,8.99
2023-03-26T11:01:34.435Z,8.96
2023-03-26T11:02:34.450Z,8.96
2023-03-26T11:03:34.419Z,8.81
2023-03-26T11:04:34.390Z,8.80
2023-03-26T11:05:35.122Z,8.75
2023-03-26T11:06:34.379Z,8.67
2023-03-26T11:07:34.364Z,8.71
2023-03-26T11:08:34.376Z,8.72
2023-03-26T11:09:34.347Z,8.75
2023-03-26T11:10:34.822Z,8.80
2023-03-26T11:11:34.327Z,8.89
2023-03-26T11:12:34.332Z,8.90
2023-03-26T11:13:34.310Z,8.93
2023-03-26T11:14:35.399Z,8.93
2023-03-26T11:15:34.619Z,8.96
2023-03-26T11:16:34.295Z,8.90
2023-03-26T11:17:39.702Z,8.88
2023-03-26T11:18:34.276Z,8.86
2023-03-26T11:19:34.265Z,8.83
2023-03-26T11:20:34.933Z,8.81
2023-03-26T11:21:34.245Z,8.80
2023-03-26T11:22:34.238Z,8.83
2023-03-26T11:23:34.224Z,8.83
2023-03-26T11:24:34.219Z,8.78
2023-03-26T11:25:34.542Z,8.83
2023-03-26T11:26:34.203Z,8.81
2023-03-26T11:27:34.191Z,8.80
2023-03-26T11:28:34.186Z,8.77
2023-03-26T11:29:34.184Z,8.74
2023-03-26T11:30:34.611Z,8.71
2023-03-26T11:31:34.210Z,8.67
2023-03-26T11:32:34.154Z,8.71
2023-03-26T11:33:34.137Z,8.72
2023-03-26T11:34:34.129Z,8.72
2023-03-26T11:35:40.590Z,8.77
2023-03-26T11:36:34.118Z,8.72
2023-03-26T11:37:34.142Z,8.67
2023-03-26T11:38:34.098Z,8.65
2023-03-26T11:39:34.088Z,8.60
2023-03-26T11:40:34.399Z,8.65
2023-03-26T11:41:34.076Z,8.42
2023-03-26T11:42:34.064Z,8.42
2023-03-26T11:43:34.054Z,8.42
2023-03-26T11:44:34.055Z,8.44
2023-03-26T11:45:34.034Z,8.44
2023-03-26T11:46:34.326Z,8.32
2023-03-26T11:47:34.086Z,8.31
2023-03-26T11:48:34.011Z,8.28
2023-03-26T11:49:34.011Z,8.19
2023-03-26T11:50:34.002Z,8.23
2023-03-26T11:51:34.432Z,8.21
2023-03-26T11:52:33.976Z,8.21
2023-03-26T11:53:33.958Z,8.13
2023-03-26T11:54:33.956Z,8.09
2023-03-26T11:55:33.930Z,8.06
2023-03-26T11:56:34.385Z,7.98
2023-03-26T11:57:33.954Z,7.87
2023-03-26T11:58:33.911Z,7.83
2023-03-26T11:59:39.138Z,7.77
2023-03-26T12:00:33.888Z,7.77
2023-03-26T12:01:34.174Z,7.78
2023-03-26T12:02:34.039Z,7.81
2023-03-26T12:03:33.864Z,7.86
2023-03-26T12:04:33.996Z,7.83
2023-03-26T12:05:33.832Z,7.91
2023-03-26T12:06:34.137Z,7.92
2023-03-26T12:07:33.854Z,7.92
2023-03-26T12:08:33.839Z,7.92
2023-03-26T12:09:33.792Z,7.91
2023-03-26T12:10:33.785Z,7.92
2023-03-26T12:11:35.285Z,7.92
2023-03-26T12:12:33.770Z,7.92
2023-03-26T12:13:33.750Z,7.94
2023-03-26T12:14:33.756Z,7.95
2023-03-26T12:15:33.747Z,7.94
2023-03-26T12:16:34.063Z,7.95
2023-03-26T12:17:33.752Z,7.96
2023-03-26T12:18:33.704Z,7.94
2023-03-26T12:19:33.701Z,7.95
2023-03-26T12:20:33.681Z,7.98
2023-03-26T12:21:34.529Z,7.98
2023-03-26T12:22:34.530Z,8.01
2023-03-26T12:23:33.647Z,7.95
2023-03-26T12:24:33.653Z,7.92
2023-03-26T12:25:33.638Z,7.88
2023-03-26T12:26:34.136Z,7.87
2023-03-26T12:27:33.610Z,7.84
2023-03-26T12:28:33.612Z,7.77
2023-03-26T12:29:33.591Z,7.57
2023-03-26T12:30:33.592Z,7.44
2023-03-26T12:31:33.815Z,7.46
2023-03-26T12:32:45.157Z,7.43
2023-03-26T12:33:33.614Z,7.47
2023-03-26T12:34:33.543Z,7.42
2023-03-26T12:35:33.582Z,7.33
2023-03-26T12:36:33.712Z,7.29
2023-03-26T12:37:33.510Z,7.29
2023-03-26T12:38:33.558Z,7.24
2023-03-26T12:40:07.450Z,7.28
2023-03-26T12:40:33.494Z,7.24
2023-03-26T12:43:40.653Z,7.22
2023-03-26T12:44:59.675Z,7.19
2023-03-26T12:45:05.631Z,7.16
2023-03-26T12:47:15.148Z,7.16
2023-03-26T12:48:04.771Z,7.13
2023-03-26T12:48:10.289Z,7.08
2023-03-26T12:49:10.328Z,7.07
2023-03-26T12:50:10.199Z,7.07
2023-03-26T12:51:10.193Z,7.11
2023-03-26T12:52:10.167Z,7.13
2023-03-26T12:53:10.154Z,7.13
2023-03-26T12:54:10.147Z,7.11
2023-03-26T12:55:12.082Z,7.11
2023-03-26T12:56:10.458Z,7.08
2023-03-26T12:57:12.132Z,7.07
2023-03-26T12:58:13.357Z,7.07
2023-03-26T12:59:10.088Z,7.04
2023-03-26T13:00:10.104Z,7.07
2023-03-26T13:01:10.330Z,7.01
2023-03-26T13:02:10.073Z,7.04
2023-03-26T13:03:10.163Z,7.11
2023-03-26T13:04:10.044Z,7.10
2023-03-26T13:05:10.034Z,7.15
2023-03-26T13:06:10.393Z,7.13
2023-03-26T13:07:10.001Z,7.10
2023-03-26T13:08:10.010Z,7.13
2023-03-26T13:09:09.995Z,7.18
2023-03-26T13:10:09.982Z,7.22
2023-03-26T13:11:09.983Z,7.22
2023-03-26T13:12:10.308Z,7.28
2023-03-26T13:13:09.981Z,7.28
2023-03-26T13:14:09.938Z,7.29
2023-03-26T13:15:09.917Z,7.28
2023-03-26T13:16:09.926Z,7.29
2023-03-26T13:17:10.270Z,7.33
2023-03-26T13:18:09.899Z,7.37
2023-03-26T13:19:09.892Z,7.43
2023-03-26T13:20:09.884Z,7.42